sensor_id;sensor_type;location;lat;lon;timestamp;temperature;humidity
7240;DHT22;3661;53.288;10.458;2022-12-18T00:02:21;-6.20;99.90
7240;DHT22;3661;53.288;10.458;2022-12-18T00:04:55;-6.20;99.90
7240;DHT22;3661;53.288;10.458;2022-12-18T00:07:28;-6.20;99.90
7240;DHT22;3661;53.288;10.458;2022-12-18T00:10:00;-6.20;99.90
7240;DHT22;3661;53.288;10.458;2022-12-18T00:12:32;-6.20;99.90
7240;DHT22;3661;53.288;10.458;2022-12-18T00:15:04;-6.20;99.90
7240;DHT22;3661;53.288;10.458;2022-12-18T00:17:38;-6.20;99.90
7240;DHT22;3661;53.288;10.458;2022-12-18T00:20:12;-6.20;99.90
7240;DHT22;3661;53.288;10.458;2022-12-18T00:22:44;-6.20;99.90
7240;DHT22;3661;53.288;10.458;2022-12-18T00:25:16;-6.30;99.90
7240;DHT22;3661;53.288;10.458;2022-12-18T00:27:48;-6.30;99.90
7240;DHT22;3661;53.288;10.458;2022-12-18T00:30:20;-6.30;99.90
7240;DHT22;3661;53.288;10.458;2022-12-18T00:32:52;-6.30;99.90
7240;DHT22;3661;53.288;10.458;2022-12-18T00:35:26;-6.30;99.90
7240;DHT22;3661;53.288;10.458;2022-12-18T00:37:58;-6.30;99.90
7240;DHT22;3661;53.288;10.458;2022-12-18T00:40:30;-6.30;99.90
7240;DHT22;3661;53.288;10.458;2022-12-18T00:43:02;-6.40;99.90
7240;DHT22;3661;53.288;10.458;2022-12-18T00:45:33;-6.40;99.90
7240;DHT22;3661;53.288;10.458;2022-12-18T00:48:05;-6.40;99.90
7240;DHT22;3661;53.288;10.458;2022-12-18T00:50:41;-6.40;99.90
7240;DHT22;3661;53.288;10.458;2022-12-18T00:53:13;-6.40;99.90
7240;DHT22;3661;53.288;10.458;2022-12-18T00:55:46;-6.40;99.90
7240;DHT22;3661;53.288;10.458;2022-12-18T00:58:18;-6.40;99.90
7240;DHT22;3661;53.288;10.458;2022-12-18T01:00:50;-6.40;99.90
7240;DHT22;3661;53.288;10.458;2022-12-18T01:03:22;-6.50;99.90
7240;DHT22;3661;53.288;10.458;2022-12-18T01:05:56;-6.50;99.90
7240;DHT22;3661;53.288;10.458;2022-12-18T01:08:28;-6.50;99.90
7240;DHT22;3661;53.288;10.458;2022-12-18T01:11:00;-6.50;99.90
7240;DHT22;3661;53.288;10.458;2022-12-18T01:13:32;-6.50;99.90
7240;DHT22;3661;53.288;10.458;2022-12-18T01:16:05;-6.50;99.90
7240;DHT22;3661;53.288;10.458;2022-12-18T01:18:39;-6.60;99.90
7240;DHT22;3661;53.288;10.458;2022-12-18T01:21:14;-6.60;99.90
7240;DHT22;3661;53.288;10.458;2022-12-18T01:23:50;-6.60;99.90
7240;DHT22;3661;53.288;10.458;2022-12-18T01:26:23;-6.70;99.90
7240;DHT22;3661;53.288;10.458;2022-12-18T01:28:56;-6.70;99.90
7240;DHT22;3661;53.288;10.458;2022-12-18T01:31:31;-6.70;99.90
7240;DHT22;3661;53.288;10.458;2022-12-18T01:34:04;-6.70;99.90
7240;DHT22;3661;53.288;10.458;2022-12-18T01:36:39;-6.70;99.90
7240;DHT22;3661;53.288;10.458;2022-12-18T01:39:13;-6.80;99.90
7240;DHT22;3661;53.288;10.458;2022-12-18T01:41:45;-6.80;99.90
7240;DHT22;3661;53.288;10.458;2022-12-18T01:45:02;-6.80;99.90
7240;DHT22;3661;53.288;10.458;2022-12-18T01:47:39;-6.80;99.90
7240;DHT22;3661;53.288;10.458;2022-12-18T01:50:14;-6.80;99.90
7240;DHT22;3661;53.288;10.458;2022-12-18T01:52:50;-6.80;99.90
7240;DHT22;3661;53.288;10.458;2022-12-18T01:55:25;-6.80;99.90
7240;DHT22;3661;53.288;10.458;2022-12-18T01:57:59;-6.80;99.90
7240;DHT22;3661;53.288;10.458;2022-12-18T02:00:31;-6.80;99.90
7240;DHT22;3661;53.288;10.458;2022-12-18T02:03:05;-6.90;99.90
7240;DHT22;3661;53.288;10.458;2022-12-18T02:05:44;-6.90;99.90
7240;DHT22;3661;53.288;10.458;2022-12-18T02:08:21;-6.90;99.90
7240;DHT22;3661;53.288;10.458;2022-12-18T02:11:03;-6.90;99.90
7240;DHT22;3661;53.288;10.458;2022-12-18T02:13:42;-6.90;99.90
7240;DHT22;3661;53.288;10.458;2022-12-18T02:16:21;-6.90;99.90
7240;DHT22;3661;53.288;10.458;2022-12-18T02:18:59;-7.00;99.90
7240;DHT22;3661;53.288;10.458;2022-12-18T02:21:45;-7.00;99.90
7240;DHT22;3661;53.288;10.458;2022-12-18T02:24:28;-7.00;99.90
7240;DHT22;3661;53.288;10.458;2022-12-18T02:27:06;-7.00;99.90
7240;DHT22;3661;53.288;10.458;2022-12-18T02:29:42;-7.00;99.90
7240;DHT22;3661;53.288;10.458;2022-12-18T02:32:20;-7.00;99.90
7240;DHT22;3661;53.288;10.458;2022-12-18T02:34:55;-7.10;99.90
7240;DHT22;3661;53.288;10.458;2022-12-18T02:37:28;-7.10;99.90
7240;DHT22;3661;53.288;10.458;2022-12-18T02:40:04;-7.10;99.90
7240;DHT22;3661;53.288;10.458;2022-12-18T02:42:38;-7.10;99.90
7240;DHT22;3661;53.288;10.458;2022-12-18T02:45:10;-7.10;99.90
7240;DHT22;3661;53.288;10.458;2022-12-18T02:47:46;-7.20;99.90
7240;DHT22;3661;53.288;10.458;2022-12-18T02:50:24;-7.20;99.90
7240;DHT22;3661;53.288;10.458;2022-12-18T02:53:06;-7.20;99.90
7240;DHT22;3661;53.288;10.458;2022-12-18T02:55:52;-7.30;99.90
7240;DHT22;3661;53.288;10.458;2022-12-18T02:58:32;-7.30;99.90
7240;DHT22;3661;53.288;10.458;2022-12-18T03:01:10;-7.40;99.90
7240;DHT22;3661;53.288;10.458;2022-12-18T03:03:50;-7.40;99.90
7240;DHT22;3661;53.288;10.458;2022-12-18T03:06:26;-7.40;99.90
7240;DHT22;3661;53.288;10.458;2022-12-18T03:09:07;-7.40;99.90
7240;DHT22;3661;53.288;10.458;2022-12-18T03:11:43;-7.50;99.90
7240;DHT22;3661;53.288;10.458;2022-12-18T03:14:38;-7.50;99.90
7240;DHT22;3661;53.288;10.458;2022-12-18T03:17:16;-7.50;99.90
7240;DHT22;3661;53.288;10.458;2022-12-18T03:19:49;-7.60;99.90
7240;DHT22;3661;53.288;10.458;2022-12-18T03:22:24;-7.60;99.90
7240;DHT22;3661;53.288;10.458;2022-12-18T03:25:01;-7.60;99.90
7240;DHT22;3661;53.288;10.458;2022-12-18T03:27:36;-7.60;99.90
7240;DHT22;3661;53.288;10.458;2022-12-18T03:30:13;-7.60;99.90
7240;DHT22;3661;53.288;10.458;2022-12-18T03:32:48;-7.70;99.90
7240;DHT22;3661;53.288;10.458;2022-12-18T03:35:26;-7.70;99.90
7240;DHT22;3661;53.288;10.458;2022-12-18T03:37:58;-7.70;99.90
7240;DHT22;3661;53.288;10.458;2022-12-18T03:40:39;-7.70;99.90
7240;DHT22;3661;53.288;10.458;2022-12-18T03:43:17;-7.80;99.90
7240;DHT22;3661;53.288;10.458;2022-12-18T03:45:56;-7.80;99.90
7240;DHT22;3661;53.288;10.458;2022-12-18T03:48:35;-7.80;99.90
7240;DHT22;3661;53.288;10.458;2022-12-18T03:51:13;-7.80;99.90
7240;DHT22;3661;53.288;10.458;2022-12-18T03:53:51;-7.80;99.90
7240;DHT22;3661;53.288;10.458;2022-12-18T03:56:31;-7.80;99.90
7240;DHT22;3661;53.288;10.458;2022-12-18T03:59:04;-7.80;99.90
7240;DHT22;3661;53.288;10.458;2022-12-18T04:01:41;-7.80;99.90
7240;DHT22;3661;53.288;10.458;2022-12-18T04:04:15;-7.80;99.90
7240;DHT22;3661;53.288;10.458;2022-12-18T04:06:48;-7.80;99.90
7240;DHT22;3661;53.288;10.458;2022-12-18T04:09:21;-7.90;99.90
7240;DHT22;3661;53.288;10.458;2022-12-18T04:11:53;-7.90;99.90
7240;DHT22;3661;53.288;10.458;2022-12-18T04:14:25;-7.90;99.90
7240;DHT22;3661;53.288;10.458;2022-12-18T04:16:58;-7.90;99.90
7240;DHT22;3661;53.288;10.458;2022-12-18T04:19:31;-7.90;99.90
7240;DHT22;3661;53.288;10.458;2022-12-18T04:22:03;-7.90;99.90
7240;DHT22;3661;53.288;10.458;2022-12-18T04:24:35;-7.90;99.90
7240;DHT22;3661;53.288;10.458;2022-12-18T04:27:09;-8.00;99.90
7240;DHT22;3661;53.288;10.458;2022-12-18T04:29:41;-8.00;99.90
7240;DHT22;3661;53.288;10.458;2022-12-18T04:32:15;-8.00;99.90
7240;DHT22;3661;53.288;10.458;2022-12-18T04:34:47;-8.00;99.90
7240;DHT22;3661;53.288;10.458;2022-12-18T04:37:19;-8.00;99.90
7240;DHT22;3661;53.288;10.458;2022-12-18T04:39:51;-8.00;99.90
7240;DHT22;3661;53.288;10.458;2022-12-18T04:42:23;-8.00;99.90
7240;DHT22;3661;53.288;10.458;2022-12-18T04:44:55;-8.00;99.90
7240;DHT22;3661;53.288;10.458;2022-12-18T04:47:29;-8.10;99.90
7240;DHT22;3661;53.288;10.458;2022-12-18T04:50:03;-8.00;99.90
7240;DHT22;3661;53.288;10.458;2022-12-18T04:52:35;-8.10;99.90
7240;DHT22;3661;53.288;10.458;2022-12-18T04:55:07;-8.10;99.90
7240;DHT22;3661;53.288;10.458;2022-12-18T04:57:42;-8.10;99.90
7240;DHT22;3661;53.288;10.458;2022-12-18T05:00:15;-8.10;99.90
7240;DHT22;3661;53.288;10.458;2022-12-18T05:02:48;-8.10;99.90
7240;DHT22;3661;53.288;10.458;2022-12-18T05:05:20;-8.10;99.90
7240;DHT22;3661;53.288;10.458;2022-12-18T05:07:52;-8.10;99.90
7240;DHT22;3661;53.288;10.458;2022-12-18T05:10:25;-8.10;99.90
7240;DHT22;3661;53.288;10.458;2022-12-18T05:12:57;-8.10;99.90
7240;DHT22;3661;53.288;10.458;2022-12-18T05:15:32;-8.10;99.90
7240;DHT22;3661;53.288;10.458;2022-12-18T05:18:06;-8.10;99.90
7240;DHT22;3661;53.288;10.458;2022-12-18T05:20:40;-8.10;99.90
7240;DHT22;3661;53.288;10.458;2022-12-18T05:23:12;-8.20;99.90
7240;DHT22;3661;53.288;10.458;2022-12-18T05:25:47;-8.10;99.90
7240;DHT22;3661;53.288;10.458;2022-12-18T05:28:20;-8.10;99.90
7240;DHT22;3661;53.288;10.458;2022-12-18T05:30:55;-8.20;99.90
7240;DHT22;3661;53.288;10.458;2022-12-18T05:33:31;-8.20;99.90
7240;DHT22;3661;53.288;10.458;2022-12-18T05:36:05;-8.20;99.90
7240;DHT22;3661;53.288;10.458;2022-12-18T05:38:39;-8.20;99.90
7240;DHT22;3661;53.288;10.458;2022-12-18T05:41:11;-8.20;99.90
7240;DHT22;3661;53.288;10.458;2022-12-18T05:43:43;-8.20;99.90
7240;DHT22;3661;53.288;10.458;2022-12-18T05:46:16;-8.20;99.90
7240;DHT22;3661;53.288;10.458;2022-12-18T05:48:50;-8.30;99.90
7240;DHT22;3661;53.288;10.458;2022-12-18T05:51:22;-8.30;99.90
7240;DHT22;3661;53.288;10.458;2022-12-18T05:53:55;-8.30;99.90
7240;DHT22;3661;53.288;10.458;2022-12-18T05:56:27;-8.30;99.90
7240;DHT22;3661;53.288;10.458;2022-12-18T05:58:59;-8.30;99.90
7240;DHT22;3661;53.288;10.458;2022-12-18T06:01:31;-8.30;99.90
7240;DHT22;3661;53.288;10.458;2022-12-18T06:04:04;-8.30;99.90
7240;DHT22;3661;53.288;10.458;2022-12-18T06:06:38;-8.30;99.90
7240;DHT22;3661;53.288;10.458;2022-12-18T06:09:10;-8.30;99.90
7240;DHT22;3661;53.288;10.458;2022-12-18T06:11:42;-8.30;99.90
7240;DHT22;3661;53.288;10.458;2022-12-18T06:14:14;-8.30;99.90
7240;DHT22;3661;53.288;10.458;2022-12-18T06:16:48;-8.30;99.90
7240;DHT22;3661;53.288;10.458;2022-12-18T06:19:23;-8.30;99.90
7240;DHT22;3661;53.288;10.458;2022-12-18T06:21:55;-8.40;99.90
7240;DHT22;3661;53.288;10.458;2022-12-18T06:24:30;-8.40;99.90
7240;DHT22;3661;53.288;10.458;2022-12-18T06:27:02;-8.40;99.90
7240;DHT22;3661;53.288;10.458;2022-12-18T06:29:34;-8.40;99.90
7240;DHT22;3661;53.288;10.458;2022-12-18T06:32:06;-8.40;99.90
7240;DHT22;3661;53.288;10.458;2022-12-18T06:34:39;-8.40;99.90
7240;DHT22;3661;53.288;10.458;2022-12-18T06:37:13;-8.40;99.90
7240;DHT22;3661;53.288;10.458;2022-12-18T06:39:45;-8.40;99.90
7240;DHT22;3661;53.288;10.458;2022-12-18T06:42:17;-8.40;99.90
7240;DHT22;3661;53.288;10.458;2022-12-18T06:44:49;-8.40;99.90
7240;DHT22;3661;53.288;10.458;2022-12-18T06:47:21;-8.40;99.90
7240;DHT22;3661;53.288;10.458;2022-12-18T06:49:55;-8.40;99.90
7240;DHT22;3661;53.288;10.458;2022-12-18T06:52:27;-8.40;99.90
7240;DHT22;3661;53.288;10.458;2022-12-18T06:54:59;-8.40;99.90
7240;DHT22;3661;53.288;10.458;2022-12-18T06:57:31;-8.50;99.90
7240;DHT22;3661;53.288;10.458;2022-12-18T07:00:05;-8.50;99.90
7240;DHT22;3661;53.288;10.458;2022-12-18T07:02:37;-8.50;99.90
7240;DHT22;3661;53.288;10.458;2022-12-18T07:05:11;-8.50;99.90
7240;DHT22;3661;53.288;10.458;2022-12-18T07:07:43;-8.50;99.90
7240;DHT22;3661;53.288;10.458;2022-12-18T07:10:16;-8.50;99.90
7240;DHT22;3661;53.288;10.458;2022-12-18T07:12:48;-8.50;99.90
7240;DHT22;3661;53.288;10.458;2022-12-18T07:15:20;-8.50;99.90
7240;DHT22;3661;53.288;10.458;2022-12-18T07:17:52;-8.50;99.90
7240;DHT22;3661;53.288;10.458;2022-12-18T07:20:26;-8.50;99.90
7240;DHT22;3661;53.288;10.458;2022-12-18T07:22:58;-8.50;99.90
7240;DHT22;3661;53.288;10.458;2022-12-18T07:25:30;-8.60;99.90
7240;DHT22;3661;53.288;10.458;2022-12-18T07:28:02;-8.60;99.90
7240;DHT22;3661;53.288;10.458;2022-12-18T07:30:37;-8.60;99.90
7240;DHT22;3661;53.288;10.458;2022-12-18T07:33:09;-8.60;99.90
7240;DHT22;3661;53.288;10.458;2022-12-18T07:35:42;-8.60;99.90
7240;DHT22;3661;53.288;10.458;2022-12-18T07:38:14;-8.60;99.90
7240;DHT22;3661;53.288;10.458;2022-12-18T07:40:47;-8.60;99.90
7240;DHT22;3661;53.288;10.458;2022-12-18T07:43:19;-8.60;99.90
7240;DHT22;3661;53.288;10.458;2022-12-18T07:45:54;-8.60;99.90
7240;DHT22;3661;53.288;10.458;2022-12-18T07:48:27;-8.70;99.90
7240;DHT22;3661;53.288;10.458;2022-12-18T07:51:01;-8.60;99.90
7240;DHT22;3661;53.288;10.458;2022-12-18T07:53:35;-8.70;99.90
7240;DHT22;3661;53.288;10.458;2022-12-18T07:56:10;-8.70;99.90
7240;DHT22;3661;53.288;10.458;2022-12-18T07:58:42;-8.70;99.90
7240;DHT22;3661;53.288;10.458;2022-12-18T08:01:14;-8.70;99.90
7240;DHT22;3661;53.288;10.458;2022-12-18T08:03:47;-8.70;99.90
7240;DHT22;3661;53.288;10.458;2022-12-18T08:06:20;-8.60;99.90
7240;DHT22;3661;53.288;10.458;2022-12-18T08:08:53;-8.60;99.90
7240;DHT22;3661;53.288;10.458;2022-12-18T08:11:26;-8.70;99.90
7240;DHT22;3661;53.288;10.458;2022-12-18T08:13:59;-8.70;99.90
7240;DHT22;3661;53.288;10.458;2022-12-18T08:16:31;-8.70;99.90
7240;DHT22;3661;53.288;10.458;2022-12-18T08:19:03;-8.70;99.90
7240;DHT22;3661;53.288;10.458;2022-12-18T08:21:37;-8.70;99.90
7240;DHT22;3661;53.288;10.458;2022-12-18T08:24:14;-8.60;99.90
7240;DHT22;3661;53.288;10.458;2022-12-18T08:26:46;-8.70;99.90
7240;DHT22;3661;53.288;10.458;2022-12-18T08:29:18;-8.60;99.90
7240;DHT22;3661;53.288;10.458;2022-12-18T08:31:51;-8.60;99.90
7240;DHT22;3661;53.288;10.458;2022-12-18T08:34:23;-8.60;99.90
7240;DHT22;3661;53.288;10.458;2022-12-18T08:36:59;-8.60;99.90
7240;DHT22;3661;53.288;10.458;2022-12-18T08:39:31;-8.60;99.90
7240;DHT22;3661;53.288;10.458;2022-12-18T08:42:03;-8.60;99.90
7240;DHT22;3661;53.288;10.458;2022-12-18T08:44:53;-8.60;99.90
7240;DHT22;3661;53.288;10.458;2022-12-18T08:47:25;-8.50;99.90
7240;DHT22;3661;53.288;10.458;2022-12-18T08:49:57;-8.50;99.90
7240;DHT22;3661;53.288;10.458;2022-12-18T08:52:33;-8.50;99.90
7240;DHT22;3661;53.288;10.458;2022-12-18T08:55:06;-8.50;99.90
7240;DHT22;3661;53.288;10.458;2022-12-18T08:57:39;-8.50;99.90
7240;DHT22;3661;53.288;10.458;2022-12-18T09:00:13;-8.40;99.90
7240;DHT22;3661;53.288;10.458;2022-12-18T09:02:45;-8.40;99.90
7240;DHT22;3661;53.288;10.458;2022-12-18T09:05:18;-8.40;99.90
7240;DHT22;3661;53.288;10.458;2022-12-18T09:07:51;-8.40;99.90
7240;DHT22;3661;53.288;10.458;2022-12-18T09:10:23;-8.30;99.90
7240;DHT22;3661;53.288;10.458;2022-12-18T09:12:55;-8.30;99.90
7240;DHT22;3661;53.288;10.458;2022-12-18T09:15:27;-8.20;99.90
7240;DHT22;3661;53.288;10.458;2022-12-18T09:17:59;-8.20;99.90
7240;DHT22;3661;53.288;10.458;2022-12-18T09:20:32;-8.10;99.90
7240;DHT22;3661;53.288;10.458;2022-12-18T09:23:06;-8.10;99.90
7240;DHT22;3661;53.288;10.458;2022-12-18T09:25:38;-8.00;99.90
7240;DHT22;3661;53.288;10.458;2022-12-18T09:28:13;-8.00;99.90
7240;DHT22;3661;53.288;10.458;2022-12-18T09:30:47;-7.90;99.90
7240;DHT22;3661;53.288;10.458;2022-12-18T09:33:19;-7.80;99.90
7240;DHT22;3661;53.288;10.458;2022-12-18T09:35:51;-7.80;99.90
7240;DHT22;3661;53.288;10.458;2022-12-18T09:38:25;-7.70;99.90
7240;DHT22;3661;53.288;10.458;2022-12-18T09:41:01;-7.70;99.90
7240;DHT22;3661;53.288;10.458;2022-12-18T09:43:41;-7.60;99.90
7240;DHT22;3661;53.288;10.458;2022-12-18T09:46:19;-7.50;99.90
7240;DHT22;3661;53.288;10.458;2022-12-18T09:48:54;-7.40;99.90
7240;DHT22;3661;53.288;10.458;2022-12-18T09:51:32;-7.40;99.90
7240;DHT22;3661;53.288;10.458;2022-12-18T09:54:10;-7.30;99.90
7240;DHT22;3661;53.288;10.458;2022-12-18T09:56:44;-7.10;99.90
7240;DHT22;3661;53.288;10.458;2022-12-18T09:59:22;-7.10;99.90
7240;DHT22;3661;53.288;10.458;2022-12-18T10:01:55;-7.00;99.90
7240;DHT22;3661;53.288;10.458;2022-12-18T10:04:31;-6.90;99.90
7240;DHT22;3661;53.288;10.458;2022-12-18T10:07:09;-6.80;99.90
7240;DHT22;3661;53.288;10.458;2022-12-18T10:09:53;-6.70;99.90
7240;DHT22;3661;53.288;10.458;2022-12-18T10:12:32;-6.60;99.90
7240;DHT22;3661;53.288;10.458;2022-12-18T10:15:14;-6.50;99.90
7240;DHT22;3661;53.288;10.458;2022-12-18T10:17:51;-6.40;99.90
7240;DHT22;3661;53.288;10.458;2022-12-18T10:20:30;-6.30;99.90
7240;DHT22;3661;53.288;10.458;2022-12-18T10:23:10;-6.20;99.90
7240;DHT22;3661;53.288;10.458;2022-12-18T10:25:53;-6.10;99.90
7240;DHT22;3661;53.288;10.458;2022-12-18T10:28:27;-5.90;99.90
7240;DHT22;3661;53.288;10.458;2022-12-18T10:31:01;-5.80;99.90
7240;DHT22;3661;53.288;10.458;2022-12-18T10:33:34;-5.70;99.90
7240;DHT22;3661;53.288;10.458;2022-12-18T10:36:06;-5.60;99.90
7240;DHT22;3661;53.288;10.458;2022-12-18T10:38:39;-5.60;99.90
7240;DHT22;3661;53.288;10.458;2022-12-18T10:41:26;-5.40;99.90
7240;DHT22;3661;53.288;10.458;2022-12-18T10:44:20;-5.30;99.90
7240;DHT22;3661;53.288;10.458;2022-12-18T10:46:55;-5.20;99.90
7240;DHT22;3661;53.288;10.458;2022-12-18T10:49:38;-5.10;99.90
7240;DHT22;3661;53.288;10.458;2022-12-18T10:52:17;-5.00;99.90
7240;DHT22;3661;53.288;10.458;2022-12-18T10:54:52;-4.90;99.90
7240;DHT22;3661;53.288;10.458;2022-12-18T10:57:36;-4.80;99.90
7240;DHT22;3661;53.288;10.458;2022-12-18T11:00:24;-4.70;99.90
7240;DHT22;3661;53.288;10.458;2022-12-18T11:02:56;-4.60;99.90
7240;DHT22;3661;53.288;10.458;2022-12-18T11:05:31;-4.50;99.90
7240;DHT22;3661;53.288;10.458;2022-12-18T11:08:03;-4.50;99.90
7240;DHT22;3661;53.288;10.458;2022-12-18T11:10:37;-4.40;99.90
7240;DHT22;3661;53.288;10.458;2022-12-18T11:13:18;-4.30;99.90
7240;DHT22;3661;53.288;10.458;2022-12-18T11:15:52;-4.20;99.90
7240;DHT22;3661;53.288;10.458;2022-12-18T11:18:27;-4.10;99.90
7240;DHT22;3661;53.288;10.458;2022-12-18T11:21:05;-4.00;99.90
7240;DHT22;3661;53.288;10.458;2022-12-18T11:23:46;-3.90;99.90
7240;DHT22;3661;53.288;10.458;2022-12-18T11:26:18;-3.90;99.90
7240;DHT22;3661;53.288;10.458;2022-12-18T11:29:09;-3.80;99.90
7240;DHT22;3661;53.288;10.458;2022-12-18T11:31:41;-3.70;99.90
7240;DHT22;3661;53.288;10.458;2022-12-18T11:34:18;-3.60;99.90
7240;DHT22;3661;53.288;10.458;2022-12-18T11:36:54;-3.50;99.90
7240;DHT22;3661;53.288;10.458;2022-12-18T11:39:34;-3.40;99.90
7240;DHT22;3661;53.288;10.458;2022-12-18T11:42:14;-3.40;99.90
7240;DHT22;3661;53.288;10.458;2022-12-18T11:44:51;-3.30;99.90
7240;DHT22;3661;53.288;10.458;2022-12-18T11:47:28;-3.20;99.90
7240;DHT22;3661;53.288;10.458;2022-12-18T11:50:09;-3.20;99.90
7240;DHT22;3661;53.288;10.458;2022-12-18T11:52:44;-3.10;99.90
7240;DHT22;3661;53.288;10.458;2022-12-18T11:55:21;-3.00;99.90
7240;DHT22;3661;53.288;10.458;2022-12-18T11:58:01;-3.00;99.90
7240;DHT22;3661;53.288;10.458;2022-12-18T12:00:43;-2.90;99.90
7240;DHT22;3661;53.288;10.458;2022-12-18T12:03:47;-2.90;99.90
7240;DHT22;3661;53.288;10.458;2022-12-18T12:06:26;-2.80;99.90
7240;DHT22;3661;53.288;10.458;2022-12-18T12:09:10;-2.80;99.90
7240;DHT22;3661;53.288;10.458;2022-12-18T12:11:51;-2.80;99.90
7240;DHT22;3661;53.288;10.458;2022-12-18T12:14:38;-2.80;99.90
7240;DHT22;3661;53.288;10.458;2022-12-18T12:17:22;-2.70;99.90
7240;DHT22;3661;53.288;10.458;2022-12-18T12:20:02;-2.70;99.90
7240;DHT22;3661;53.288;10.458;2022-12-18T12:22:44;-2.70;99.90
7240;DHT22;3661;53.288;10.458;2022-12-18T12:25:29;-2.70;99.90
7240;DHT22;3661;53.288;10.458;2022-12-18T12:28:17;-2.60;99.90
7240;DHT22;3661;53.288;10.458;2022-12-18T12:30:58;-2.70;99.90
7240;DHT22;3661;53.288;10.458;2022-12-18T12:33:42;-2.60;99.90
7240;DHT22;3661;53.288;10.458;2022-12-18T12:36:22;-2.60;99.90
7240;DHT22;3661;53.288;10.458;2022-12-18T12:38:59;-2.60;99.90
7240;DHT22;3661;53.288;10.458;2022-12-18T12:41:34;-2.60;99.90
7240;DHT22;3661;53.288;10.458;2022-12-18T12:44:27;-2.50;99.90
7240;DHT22;3661;53.288;10.458;2022-12-18T12:47:09;-2.50;99.90
7240;DHT22;3661;53.288;10.458;2022-12-18T12:49:47;-2.50;99.90
7240;DHT22;3661;53.288;10.458;2022-12-18T12:52:28;-2.50;99.90
7240;DHT22;3661;53.288;10.458;2022-12-18T12:55:12;-2.50;99.90
7240;DHT22;3661;53.288;10.458;2022-12-18T12:57:52;-2.50;99.90
7240;DHT22;3661;53.288;10.458;2022-12-18T13:00:34;-2.50;99.90
7240;DHT22;3661;53.288;10.458;2022-12-18T13:03:13;-2.60;99.90
7240;DHT22;3661;53.288;10.458;2022-12-18T13:05:54;-2.60;99.90
7240;DHT22;3661;53.288;10.458;2022-12-18T13:08:34;-2.60;99.90
7240;DHT22;3661;53.288;10.458;2022-12-18T13:11:31;-2.50;99.90
7240;DHT22;3661;53.288;10.458;2022-12-18T13:14:24;-2.50;99.90
7240;DHT22;3661;53.288;10.458;2022-12-18T13:17:24;-2.50;99.90
7240;DHT22;3661;53.288;10.458;2022-12-18T13:20:08;-2.50;99.90
7240;DHT22;3661;53.288;10.458;2022-12-18T13:22:44;-2.50;99.90
7240;DHT22;3661;53.288;10.458;2022-12-18T13:25:34;-2.50;99.90
7240;DHT22;3661;53.288;10.458;2022-12-18T13:28:09;-2.50;99.90
7240;DHT22;3661;53.288;10.458;2022-12-18T13:30:47;-2.50;99.90
7240;DHT22;3661;53.288;10.458;2022-12-18T13:33:47;-2.50;99.90
7240;DHT22;3661;53.288;10.458;2022-12-18T13:36:31;-2.50;99.90
7240;DHT22;3661;53.288;10.458;2022-12-18T13:42:40;-2.50;99.90
7240;DHT22;3661;53.288;10.458;2022-12-18T13:45:39;-2.50;99.90
7240;DHT22;3661;53.288;10.458;2022-12-18T13:48:21;-2.60;99.90
7240;DHT22;3661;53.288;10.458;2022-12-18T13:50:58;-2.60;99.90
7240;DHT22;3661;53.288;10.458;2022-12-18T13:53:34;-2.60;99.90
7240;DHT22;3661;53.288;10.458;2022-12-18T13:56:07;-2.60;99.90
7240;DHT22;3661;53.288;10.458;2022-12-18T13:58:42;-2.70;99.90
7240;DHT22;3661;53.288;10.458;2022-12-18T14:01:22;-2.70;99.90
7240;DHT22;3661;53.288;10.458;2022-12-18T14:04:09;-2.80;99.90
7240;DHT22;3661;53.288;10.458;2022-12-18T14:06:45;-2.80;99.90
7240;DHT22;3661;53.288;10.458;2022-12-18T14:09:21;-2.90;99.90
7240;DHT22;3661;53.288;10.458;2022-12-18T14:11:56;-2.90;99.90
7240;DHT22;3661;53.288;10.458;2022-12-18T14:14:46;-3.00;99.90
7240;DHT22;3661;53.288;10.458;2022-12-18T14:17:19;-3.00;99.90
7240;DHT22;3661;53.288;10.458;2022-12-18T14:19:54;-3.10;99.90
7240;DHT22;3661;53.288;10.458;2022-12-18T14:22:27;-3.10;99.90
7240;DHT22;3661;53.288;10.458;2022-12-18T14:25:18;-3.20;99.90
7240;DHT22;3661;53.288;10.458;2022-12-18T14:27:52;-3.30;99.90
7240;DHT22;3661;53.288;10.458;2022-12-18T14:30:30;-3.30;99.90
7240;DHT22;3661;53.288;10.458;2022-12-18T14:33:04;-3.40;99.90
7240;DHT22;3661;53.288;10.458;2022-12-18T14:35:38;-3.40;99.90
7240;DHT22;3661;53.288;10.458;2022-12-18T14:38:29;-3.50;99.90
7240;DHT22;3661;53.288;10.458;2022-12-18T14:41:04;-3.50;99.90
7240;DHT22;3661;53.288;10.458;2022-12-18T14:43:38;-3.60;99.90
7240;DHT22;3661;53.288;10.458;2022-12-18T14:49:21;-3.60;99.90
7240;DHT22;3661;53.288;10.458;2022-12-18T14:51:56;-3.70;99.90
7240;DHT22;3661;53.288;10.458;2022-12-18T14:54:30;-3.80;99.90
7240;DHT22;3661;53.288;10.458;2022-12-18T14:57:04;-3.90;99.90
7240;DHT22;3661;53.288;10.458;2022-12-18T14:59:36;-3.90;99.90
7240;DHT22;3661;53.288;10.458;2022-12-18T15:02:17;-3.90;99.90
7240;DHT22;3661;53.288;10.458;2022-12-18T15:05:02;-4.00;99.90
7240;DHT22;3661;53.288;10.458;2022-12-18T15:07:41;-4.00;99.90
7240;DHT22;3661;53.288;10.458;2022-12-18T15:10:16;-4.10;99.90
7240;DHT22;3661;53.288;10.458;2022-12-18T15:12:49;-4.10;99.90
7240;DHT22;3661;53.288;10.458;2022-12-18T15:15:49;-4.10;99.90
7240;DHT22;3661;53.288;10.458;2022-12-18T15:18:27;-4.10;99.90
7240;DHT22;3661;53.288;10.458;2022-12-18T15:21:10;-4.20;99.90
7240;DHT22;3661;53.288;10.458;2022-12-18T15:23:47;-4.20;99.90
7240;DHT22;3661;53.288;10.458;2022-12-18T15:26:21;-4.30;99.90
7240;DHT22;3661;53.288;10.458;2022-12-18T15:28:54;-4.30;99.90
7240;DHT22;3661;53.288;10.458;2022-12-18T15:31:32;-4.40;99.90
7240;DHT22;3661;53.288;10.458;2022-12-18T15:34:19;-4.40;99.90
7240;DHT22;3661;53.288;10.458;2022-12-18T15:36:54;-4.40;99.90
7240;DHT22;3661;53.288;10.458;2022-12-18T15:39:26;-4.40;99.90
7240;DHT22;3661;53.288;10.458;2022-12-18T15:42:00;-4.50;99.90
7240;DHT22;3661;53.288;10.458;2022-12-18T15:44:56;-4.50;99.90
7240;DHT22;3661;53.288;10.458;2022-12-18T15:47:28;-4.50;99.90
7240;DHT22;3661;53.288;10.458;2022-12-18T15:50:00;-4.60;99.90
7240;DHT22;3661;53.288;10.458;2022-12-18T15:52:39;-4.60;99.90
7240;DHT22;3661;53.288;10.458;2022-12-18T15:55:12;-4.60;99.90
7240;DHT22;3661;53.288;10.458;2022-12-18T15:58:02;-4.60;99.90
7240;DHT22;3661;53.288;10.458;2022-12-18T16:00:38;-4.60;99.90
7240;DHT22;3661;53.288;10.458;2022-12-18T16:03:11;-4.60;99.90
7240;DHT22;3661;53.288;10.458;2022-12-18T16:05:43;-4.70;99.90
7240;DHT22;3661;53.288;10.458;2022-12-18T16:08:16;-4.70;99.90
7240;DHT22;3661;53.288;10.458;2022-12-18T16:10:48;-4.70;99.90
7240;DHT22;3661;53.288;10.458;2022-12-18T16:13:20;-4.70;99.90
7240;DHT22;3661;53.288;10.458;2022-12-18T16:15:53;-4.70;99.90
7240;DHT22;3661;53.288;10.458;2022-12-18T16:18:25;-4.70;99.90
7240;DHT22;3661;53.288;10.458;2022-12-18T16:20:57;-4.70;99.90
7240;DHT22;3661;53.288;10.458;2022-12-18T16:23:31;-4.70;99.90
7240;DHT22;3661;53.288;10.458;2022-12-18T16:26:03;-4.70;99.90
7240;DHT22;3661;53.288;10.458;2022-12-18T16:28:35;-4.70;99.90
7240;DHT22;3661;53.288;10.458;2022-12-18T16:31:08;-4.70;99.90
7240;DHT22;3661;53.288;10.458;2022-12-18T16:33:40;-4.70;99.90
7240;DHT22;3661;53.288;10.458;2022-12-18T16:36:12;-4.70;99.90
7240;DHT22;3661;53.288;10.458;2022-12-18T16:38:45;-4.70;99.90
7240;DHT22;3661;53.288;10.458;2022-12-18T16:41:18;-4.70;99.90
7240;DHT22;3661;53.288;10.458;2022-12-18T16:44:03;-4.70;99.90
7240;DHT22;3661;53.288;10.458;2022-12-18T16:46:35;-4.60;99.90
7240;DHT22;3661;53.288;10.458;2022-12-18T16:49:08;-4.60;99.90